sensor_id;sensor_type;location;lat;lon;timestamp;pressure;altitude;pressure_sealevel;temperature;humidity
29839;BME280;18669;53.356;-1.464;2023-04-05T00:00:52;101175.41;;;11.10;60.27
29839;BME280;18669;53.356;-1.464;2023-04-05T00:03:38;101168.47;;;11.02;63.10
29839;BME280;18669;53.356;-1.464;2023-04-05T00:06:27;101173.56;;;11.13;62.34
29839;BME280;18669;53.356;-1.464;2023-04-05T00:09:13;101165.94;;;10.95;65.47
29839;BME280;18669;53.356;-1.464;2023-04-05T00:11:59;101166.72;;;11.00;67.58
29839;BME280;18669;53.356;-1.464;2023-04-05T00:14:44;101161.63;;;10.91;67.04
29839;BME280;18669;53.356;-1.464;2023-04-05T00:17:29;101158.16;;;10.84;69.24
29839;BME280;18669;53.356;-1.464;2023-04-05T00:20:15;101161.66;;;10.87;70.22
29839;BME280;18669;53.356;-1.464;2023-04-05T00:23:00;101153.78;;;10.83;69.82
29839;BME280;18669;53.356;-1.464;2023-04-05T00:25:45;101147.59;;;10.88;71.07
29839;BME280;18669;53.356;-1.464;2023-04-05T00:28:30;101151.16;;;10.84;68.23
29839;BME280;18669;53.356;-1.464;2023-04-05T00:31:15;101145.00;;;10.85;68.27
29839;BME280;18669;53.356;-1.464;2023-04-05T00:34:00;101141.56;;;10.80;70.79
29839;BME280;18669;53.356;-1.464;2023-04-05T00:36:45;101135.47;;;10.77;73.12
29839;BME280;18669;53.356;-1.464;2023-04-05T00:39:30;101136.31;;;10.79;67.99
29839;BME280;18669;53.356;-1.464;2023-04-05T00:42:15;101132.75;;;10.83;71.07
29839;BME280;18669;53.356;-1.464;2023-04-05T00:44:59;101134.47;;;10.84;67.54
29839;BME280;18669;53.356;-1.464;2023-04-05T00:47:44;101122.22;;;10.84;67.46
29839;BME280;18669;53.356;-1.464;2023-04-05T00:50:29;101126.56;;;10.85;68.30
29839;BME280;18669;53.356;-1.464;2023-04-05T00:53:18;101128.16;;;10.96;72.25
29839;BME280;18669;53.356;-1.464;2023-04-05T00:56:03;101116.97;;;10.80;74.54
29839;BME280;18669;53.356;-1.464;2023-04-05T00:58:49;101124.75;;;10.91;70.39
29839;BME280;18669;53.356;-1.464;2023-04-05T01:01:35;101122.09;;;10.92;70.86
29839;BME280;18669;53.356;-1.464;2023-04-05T01:04:25;101116.75;;;10.97;73.97
29839;BME280;18669;53.356;-1.464;2023-04-05T01:07:39;101118.38;;;11.07;69.93
29839;BME280;18669;53.356;-1.464;2023-04-05T01:10:27;101113.06;;;11.10;66.56
29839;BME280;18669;53.356;-1.464;2023-04-05T01:13:15;101121.03;;;11.04;66.81
29839;BME280;18669;53.356;-1.464;2023-04-05T01:16:01;101119.28;;;11.03;65.77
29839;BME280;18669;53.356;-1.464;2023-04-05T01:18:45;101115.81;;;11.01;71.34
29839;BME280;18669;53.356;-1.464;2023-04-05T01:27:19;101101.84;;;10.97;76.12
29839;BME280;18669;53.356;-1.464;2023-04-05T01:30:17;101101.84;;;10.96;79.93
29839;BME280;18669;53.356;-1.464;2023-04-05T01:33:17;101099.28;;;10.91;77.52
29839;BME280;18669;53.356;-1.464;2023-04-05T01:38:57;101086.38;;;10.74;78.11
29839;BME280;18669;53.356;-1.464;2023-04-05T01:41:43;101079.44;;;10.67;78.69
29839;BME280;18669;53.356;-1.464;2023-04-05T01:44:28;101074.19;;;10.67;85.85
29839;BME280;18669;53.356;-1.464;2023-04-05T01:47:13;101069.03;;;10.59;88.19
29839;BME280;18669;53.356;-1.464;2023-04-05T01:49:58;101062.91;;;10.57;85.14
29839;BME280;18669;53.356;-1.464;2023-04-05T01:52:42;101069.91;;;10.59;81.60
29839;BME280;18669;53.356;-1.464;2023-04-05T01:55:27;101069.06;;;10.56;78.63
29839;BME280;18669;53.356;-1.464;2023-04-05T01:58:12;101057.72;;;10.52;77.86
29839;BME280;18669;53.356;-1.464;2023-04-05T02:00:57;101055.13;;;10.49;76.80
29839;BME280;18669;53.356;-1.464;2023-04-05T02:03:41;101056.88;;;10.49;86.64
29839;BME280;18669;53.356;-1.464;2023-04-05T02:06:27;101059.50;;;10.49;85.49
29839;BME280;18669;53.356;-1.464;2023-04-05T02:09:12;101061.28;;;10.48;87.47
29839;BME280;18669;53.356;-1.464;2023-04-05T02:11:57;101052.56;;;10.44;90.08
29839;BME280;18669;53.356;-1.464;2023-04-05T02:14:42;101059.66;;;10.39;86.97
29839;BME280;18669;53.356;-1.464;2023-04-05T02:17:27;101059.69;;;10.33;94.68
29839;BME280;18669;53.356;-1.464;2023-04-05T02:20:17;101051.78;;;10.35;82.82
29839;BME280;18669;53.356;-1.464;2023-04-05T02:23:03;101053.47;;;10.42;85.60
29839;BME280;18669;53.356;-1.464;2023-04-05T02:25:48;101052.63;;;10.41;88.29
29839;BME280;18669;53.356;-1.464;2023-04-05T02:28:33;101042.09;;;10.40;89.65
29839;BME280;18669;53.356;-1.464;2023-04-05T02:31:19;101038.69;;;10.30;90.26
29839;BME280;18669;53.356;-1.464;2023-04-05T02:34:04;101036.88;;;10.34;89.90
29839;BME280;18669;53.356;-1.464;2023-04-05T02:36:52;101048.25;;;10.40;87.20
29839;BME280;18669;53.356;-1.464;2023-04-05T02:39:37;101045.63;;;10.36;92.73
29839;BME280;18669;53.356;-1.464;2023-04-05T02:42:22;101051.81;;;10.32;98.88
29839;BME280;18669;53.356;-1.464;2023-04-05T02:45:07;101041.44;;;10.22;94.76
29839;BME280;18669;53.356;-1.464;2023-04-05T02:47:53;101037.13;;;10.15;95.18
29839;BME280;18669;53.356;-1.464;2023-04-05T02:50:39;101033.78;;;10.00;96.35
29839;BME280;18669;53.356;-1.464;2023-04-05T02:53:24;101030.31;;;9.98;99.69
29839;BME280;18669;53.356;-1.464;2023-04-05T02:56:09;101030.28;;;10.02;100.00
29839;BME280;18669;53.356;-1.464;2023-04-05T02:58:57;101026.81;;;9.96;100.00
29839;BME280;18669;53.356;-1.464;2023-04-05T03:01:42;101029.47;;;9.93;100.00
29839;BME280;18669;53.356;-1.464;2023-04-05T03:04:27;101024.31;;;9.85;100.00
29839;BME280;18669;53.356;-1.464;2023-04-05T03:07:13;101022.72;;;9.74;100.00
29839;BME280;18669;53.356;-1.464;2023-04-05T03:10:02;101017.47;;;9.70;100.00
29839;BME280;18669;53.356;-1.464;2023-04-05T03:12:47;101007.03;;;9.66;100.00
29839;BME280;18669;53.356;-1.464;2023-04-05T03:15:32;101016.72;;;9.61;100.00
29839;BME280;18669;53.356;-1.464;2023-04-05T03:18:16;101011.53;;;9.54;100.00
29839;BME280;18669;53.356;-1.464;2023-04-05T03:21:01;101009.00;;;9.42;100.00
29839;BME280;18669;53.356;-1.464;2023-04-05T03:23:48;101005.59;;;9.32;100.00
29839;BME280;18669;53.356;-1.464;2023-04-05T03:26:33;101007.28;;;9.38;100.00
29839;BME280;18669;53.356;-1.464;2023-04-05T03:29:19;101011.66;;;9.40;100.00
29839;BME280;18669;53.356;-1.464;2023-04-05T03:32:04;101013.31;;;9.49;100.00
29839;BME280;18669;53.356;-1.464;2023-04-05T03:34:49;101006.34;;;9.45;100.00
29839;BME280;18669;53.356;-1.464;2023-04-05T03:37:35;101003.66;;;9.51;100.00
29839;BME280;18669;53.356;-1.464;2023-04-05T03:40:24;101010.50;;;9.66;100.00
29839;BME280;18669;53.356;-1.464;2023-04-05T03:43:09;101010.50;;;9.66;100.00
29839;BME280;18669;53.356;-1.464;2023-04-05T03:45:54;101007.84;;;9.71;100.00
29839;BME280;18669;53.356;-1.464;2023-04-05T03:48:39;101001.69;;;9.72;100.00
29839;BME280;18669;53.356;-1.464;2023-04-05T03:51:24;100998.22;;;9.68;100.00
29839;BME280;18669;53.356;-1.464;2023-04-05T03:54:11;100993.78;;;9.75;100.00
29839;BME280;18669;53.356;-1.464;2023-04-05T03:56:56;100992.03;;;9.74;100.00
29839;BME280;18669;53.356;-1.464;2023-04-05T03:59:40;100991.25;;;9.67;100.00
29839;BME280;18669;53.356;-1.464;2023-04-05T04:02:25;100991.22;;;9.70;100.00
29839;BME280;18669;53.356;-1.464;2023-04-05T04:05:11;100996.41;;;9.77;100.00
29839;BME280;18669;53.356;-1.464;2023-04-05T04:07:57;100982.47;;;9.70;100.00
29839;BME280;18669;53.356;-1.464;2023-04-05T04:10:42;100986.88;;;9.68;100.00
29839;BME280;18669;53.356;-1.464;2023-04-05T04:13:27;100981.63;;;9.66;100.00
29839;BME280;18669;53.356;-1.464;2023-04-05T04:16:11;100968.53;;;9.60;100.00
29839;BME280;18669;53.356;-1.464;2023-04-05T04:18:57;100975.56;;;9.60;100.00
29839;BME280;18669;53.356;-1.464;2023-04-05T04:21:41;100965.91;;;9.62;100.00
29839;BME280;18669;53.356;-1.464;2023-04-05T04:24:35;100970.28;;;9.61;100.00
29839;BME280;18669;53.356;-1.464;2023-04-05T04:27:20;100965.94;;;9.57;100.00
29839;BME280;18669;53.356;-1.464;2023-04-05T04:30:09;100966.69;;;9.72;100.00
29839;BME280;18669;53.356;-1.464;2023-04-05T04:32:55;100960.66;;;9.62;100.00
29839;BME280;18669;53.356;-1.464;2023-04-05T04:35:41;100965.06;;;9.60;100.00
29839;BME280;18669;53.356;-1.464;2023-04-05T04:38:29;100958.06;;;9.59;100.00
29839;BME280;18669;53.356;-1.464;2023-04-05T04:41:18;100958.06;;;9.59;100.00
29839;BME280;18669;53.356;-1.464;2023-04-05T04:44:03;100955.44;;;9.59;100.00
29839;BME280;18669;53.356;-1.464;2023-04-05T04:46:49;100952.03;;;9.52;100.00
29839;BME280;18669;53.356;-1.464;2023-04-05T04:49:38;100948.50;;;9.51;100.00
29839;BME280;18669;53.356;-1.464;2023-04-05T04:52:25;100943.38;;;9.40;100.00
29839;BME280;18669;53.356;-1.464;2023-04-05T04:55:11;100936.34;;;9.41;100.00
29839;BME280;18669;53.356;-1.464;2023-04-05T04:57:59;100940.72;;;9.42;100.00
29839;BME280;18669;53.356;-1.464;2023-04-05T05:00:44;100939.88;;;9.40;100.00
29839;BME280;18669;53.356;-1.464;2023-04-05T05:03:29;100930.22;;;9.44;100.00
29839;BME280;18669;53.356;-1.464;2023-04-05T05:06:17;100936.13;;;9.63;100.00
29839;BME280;18669;53.356;-1.464;2023-04-05T05:09:08;100918.84;;;9.43;100.00
29839;BME280;18669;53.356;-1.464;2023-04-05T05:11:52;100927.44;;;9.56;100.00
29839;BME280;18669;53.356;-1.464;2023-04-05T05:14:37;100924.81;;;9.56;100.00
29839;BME280;18669;53.356;-1.464;2023-04-05T05:17:22;100924.75;;;9.62;100.00
29839;BME280;18669;53.356;-1.464;2023-04-05T05:20:09;100921.13;;;9.73;100.00
29839;BME280;18669;53.356;-1.464;2023-04-05T05:22:54;100919.53;;;9.59;100.00
29839;BME280;18669;53.356;-1.464;2023-04-05T05:25:39;100923.91;;;9.59;100.00
29839;BME280;18669;53.356;-1.464;2023-04-05T05:28:26;100915.09;;;9.66;100.00
29839;BME280;18669;53.356;-1.464;2023-04-05T05:31:10;100915.25;;;9.50;100.00
29839;BME280;18669;53.356;-1.464;2023-04-05T05:33:55;100926.53;;;9.57;100.00
29839;BME280;18669;53.356;-1.464;2023-04-05T05:36:40;100924.75;;;9.64;100.00
29839;BME280;18669;53.356;-1.464;2023-04-05T05:39:25;100923.78;;;9.69;100.00
29839;BME280;18669;53.356;-1.464;2023-04-05T05:42:10;100927.19;;;9.76;100.00
29839;BME280;18669;53.356;-1.464;2023-04-05T05:44:55;100932.41;;;9.81;100.00
29839;BME280;18669;53.356;-1.464;2023-04-05T05:47:39;100927.19;;;9.76;100.00
29839;BME280;18669;53.356;-1.464;2023-04-05T05:50:25;100924.56;;;9.76;100.00
29839;BME280;18669;53.356;-1.464;2023-04-05T05:53:10;100931.63;;;9.73;100.00
29839;BME280;18669;53.356;-1.464;2023-04-05T05:55:55;100923.78;;;9.71;100.00
29839;BME280;18669;53.356;-1.464;2023-04-05T05:58:40;100915.81;;;9.77;100.00
29839;BME280;18669;53.356;-1.464;2023-04-05T06:01:25;100914.84;;;9.84;100.00
29839;BME280;18669;53.356;-1.464;2023-04-05T06:04:12;100911.22;;;9.93;100.00
29839;BME280;18669;53.356;-1.464;2023-04-05T06:06:57;100916.47;;;9.93;100.00
29839;BME280;18669;53.356;-1.464;2023-04-05T06:09:42;100919.03;;;9.99;100.00
29839;BME280;18669;53.356;-1.464;2023-04-05T06:12:28;100913.03;;;9.90;100.00
29839;BME280;18669;53.356;-1.464;2023-04-05T06:15:16;100918.97;;;10.03;100.00
29839;BME280;18669;53.356;-1.464;2023-04-05T06:18:01;100915.34;;;10.13;100.00
29839;BME280;18669;53.356;-1.464;2023-04-05T06:20:46;100915.38;;;10.10;100.00
29839;BME280;18669;53.356;-1.464;2023-04-05T06:23:31;100910.13;;;10.08;100.00
29839;BME280;18669;53.356;-1.464;2023-04-05T06:26:20;100909.84;;;10.30;100.00
29839;BME280;18669;53.356;-1.464;2023-04-05T06:29:07;100904.75;;;10.19;100.00
29839;BME280;18669;53.356;-1.464;2023-04-05T06:31:53;100908.22;;;10.21;100.00
29839;BME280;18669;53.356;-1.464;2023-04-05T06:34:39;100901.09;;;10.26;100.00
29839;BME280;18669;53.356;-1.464;2023-04-05T06:37:24;100915.88;;;10.37;100.00
29839;BME280;18669;53.356;-1.464;2023-04-05T06:40:09;100912.38;;;10.36;100.00
29839;BME280;18669;53.356;-1.464;2023-04-05T06:42:54;100909.63;;;10.45;100.00
29839;BME280;18669;53.356;-1.464;2023-04-05T06:45:39;100905.19;;;10.48;100.00
29839;BME280;18669;53.356;-1.464;2023-04-05T06:48:26;100897.09;;;10.62;100.00
29839;BME280;18669;53.356;-1.464;2023-04-05T06:51:12;100907.75;;;10.55;100.00
29839;BME280;18669;53.356;-1.464;2023-04-05T06:53:57;100893.69;;;10.56;100.00
29839;BME280;18669;53.356;-1.464;2023-04-05T06:56:42;100897.09;;;10.62;100.00
29839;BME280;18669;53.356;-1.464;2023-04-05T06:59:28;100902.91;;;10.81;100.00
29839;BME280;18669;53.356;-1.464;2023-04-05T07:02:13;100900.16;;;10.87;100.00
29839;BME280;18669;53.356;-1.464;2023-04-05T07:04:58;100898.19;;;11.01;100.00
29839;BME280;18669;53.356;-1.464;2023-04-05T07:07:48;100898.97;;;11.07;100.00
29839;BME280;18669;53.356;-1.464;2023-04-05T07:10:33;100903.28;;;11.11;100.00
29839;BME280;18669;53.356;-1.464;2023-04-05T07:13:19;100911.03;;;11.18;100.00
29839;BME280;18669;53.356;-1.464;2023-04-05T07:16:05;100911.09;;;11.14;100.00
29839;BME280;18669;53.356;-1.464;2023-04-05T07:18:50;100900.59;;;11.12;100.00
29839;BME280;18669;53.356;-1.464;2023-04-05T07:21:35;100906.72;;;11.14;100.00
29839;BME280;18669;53.356;-1.464;2023-04-05T07:24:20;100900.66;;;11.09;100.00
29839;BME280;18669;53.356;-1.464;2023-04-05T07:27:05;100904.25;;;11.05;100.00
29839;BME280;18669;53.356;-1.464;2023-04-05T07:29:50;100899.09;;;10.99;100.00
29839;BME280;18669;53.356;-1.464;2023-04-05T07:32:35;100900.81;;;11.00;100.00
29839;BME280;18669;53.356;-1.464;2023-04-05T07:35:20;100909.56;;;11.03;100.00
29839;BME280;18669;53.356;-1.464;2023-04-05T07:38:05;100906.22;;;10.94;100.00
29839;BME280;18669;53.356;-1.464;2023-04-05T07:40:50;100907.28;;;10.83;100.00
29839;BME280;18669;53.356;-1.464;2023-04-05T07:43:35;100903.88;;;10.75;100.00
29839;BME280;18669;53.356;-1.464;2023-04-05T07:46:20;100897.84;;;10.70;100.00
29839;BME280;18669;53.356;-1.464;2023-04-05T07:49:05;100887.63;;;10.50;100.00
29839;BME280;18669;53.356;-1.464;2023-04-05T07:51:56;100898.09;;;10.54;100.00
29839;BME280;18669;53.356;-1.464;2023-04-05T07:54:41;100900.06;;;10.38;100.00
29839;BME280;18669;53.356;-1.464;2023-04-05T07:57:26;100907.31;;;10.22;100.00
29839;BME280;18669;53.356;-1.464;2023-04-05T08:00:12;100915.16;;;10.25;100.00
29839;BME280;18669;53.356;-1.464;2023-04-05T08:02:57;100904.69;;;10.21;100.00
29839;BME280;18669;53.356;-1.464;2023-04-05T08:05:42;100914.41;;;10.17;100.00
29839;BME280;18669;53.356;-1.464;2023-04-05T08:08:28;100902.97;;;10.21;100.00
29839;BME280;18669;53.356;-1.464;2023-04-05T08:11:13;100907.41;;;10.16;100.00
29839;BME280;18669;53.356;-1.464;2023-04-05T08:13:57;100907.25;;;10.27;100.00
29839;BME280;18669;53.356;-1.464;2023-04-05T08:16:42;100902.66;;;10.43;100.00
29839;BME280;18669;53.356;-1.464;2023-04-05T08:19:27;100896.59;;;10.36;100.00
29839;BME280;18669;53.356;-1.464;2023-04-05T08:22:12;100893.84;;;10.45;100.00
29839;BME280;18669;53.356;-1.464;2023-04-05T08:24:57;100883.25;;;10.50;100.00
29839;BME280;18669;53.356;-1.464;2023-04-05T08:27:42;100894.53;;;10.58;100.00
29839;BME280;18669;53.356;-1.464;2023-04-05T08:30:27;100897.06;;;10.63;100.00
29839;BME280;18669;53.356;-1.464;2023-04-05T08:33:12;100897.09;;;10.62;100.00
29839;BME280;18669;53.356;-1.464;2023-04-05T08:35:57;100892.56;;;10.70;100.00
29839;BME280;18669;53.356;-1.464;2023-04-05T08:38:47;100889.19;;;10.63;100.00
29839;BME280;18669;53.356;-1.464;2023-04-05T08:41:35;100892.31;;;10.84;100.00
29839;BME280;18669;53.356;-1.464;2023-04-05T08:44:21;100888.16;;;10.72;100.00
29839;BME280;18669;53.356;-1.464;2023-04-05T08:47:10;100892.91;;;11.01;100.00
29839;BME280;18669;53.356;-1.464;2023-04-05T08:49:58;100890.22;;;11.03;100.00
29839;BME280;18669;53.356;-1.464;2023-04-05T08:52:45;100885.69;;;11.11;100.00
29839;BME280;18669;53.356;-1.464;2023-04-05T08:55:33;100883.06;;;11.11;100.00
29839;BME280;18669;53.356;-1.464;2023-04-05T08:58:20;100880.28;;;11.21;100.00
29839;BME280;18669;53.356;-1.464;2023-04-05T09:01:09;100882.22;;;11.11;100.00
29839;BME280;18669;53.356;-1.464;2023-04-05T09:03:56;100878.38;;;11.29;100.00
29839;BME280;18669;53.356;-1.464;2023-04-05T09:06:43;100887.03;;;11.34;100.00
29839;BME280;18669;53.356;-1.464;2023-04-05T09:09:31;100879.06;;;11.37;100.00
29839;BME280;18669;53.356;-1.464;2023-04-05T09:12:21;100876.53;;;11.31;100.00
29839;BME280;18669;53.356;-1.464;2023-04-05T09:15:07;100875.00;;;11.19;100.00
29839;BME280;18669;53.356;-1.464;2023-04-05T09:17:53;100876.13;;;11.07;100.00
29839;BME280;18669;53.356;-1.464;2023-04-05T09:20:38;100877.25;;;10.94;100.00
29839;BME280;18669;53.356;-1.464;2023-04-05T09:23:23;100865.84;;;10.93;100.00
29839;BME280;18669;53.356;-1.464;2023-04-05T09:26:22;100865.63;;;11.06;100.00
29839;BME280;18669;53.356;-1.464;2023-04-05T09:29:07;100864.16;;;10.91;100.00
29839;BME280;18669;53.356;-1.464;2023-04-05T09:32:13;100869.44;;;10.89;100.00
29839;BME280;18669;53.356;-1.464;2023-04-05T09:34:58;100865.25;;;10.77;100.00
29839;BME280;18669;53.356;-1.464;2023-04-05T09:37:52;100866.91;;;10.83;100.00
29839;BME280;18669;53.356;-1.464;2023-04-05T09:40:47;100859.72;;;10.93;100.00
29839;BME280;18669;53.356;-1.464;2023-04-05T09:43:41;100862.22;;;10.99;100.00
29839;BME280;18669;53.356;-1.464;2023-04-05T09:46:31;100852.88;;;10.82;100.00
29839;BME280;18669;53.356;-1.464;2023-04-05T09:49:30;100855.53;;;10.81;100.00
29839;BME280;18669;53.356;-1.464;2023-04-05T09:55:07;100852.25;;;10.69;100.00
29839;BME280;18669;53.356;-1.464;2023-04-05T09:57:52;100841.97;;;10.54;100.00
29839;BME280;18669;53.356;-1.464;2023-04-05T10:00:37;100853.47;;;10.48;100.00
29839;BME280;18669;53.356;-1.464;2023-04-05T10:03:26;100857.50;;;10.69;100.00
29839;BME280;18669;53.356;-1.464;2023-04-05T10:06:14;100853.34;;;10.56;100.00
29839;BME280;18669;53.356;-1.464;2023-04-05T10:09:00;100861.88;;;10.69;100.00
29839;BME280;18669;53.356;-1.464;2023-04-05T10:11:45;100854.72;;;10.77;100.00
29839;BME280;18669;53.356;-1.464;2023-04-05T10:14:30;100858.22;;;10.78;100.00
29839;BME280;18669;53.356;-1.464;2023-04-05T10:17:30;100866.00;;;10.85;100.00
29839;BME280;18669;53.356;-1.464;2023-04-05T10:20:22;100862.78;;;10.68;100.00
29839;BME280;18669;53.356;-1.464;2023-04-05T10:23:21;100863.25;;;10.41;100.00
29839;BME280;18669;53.356;-1.464;2023-04-05T10:26:31;100861.63;;;10.31;100.00
29839;BME280;18669;53.356;-1.464;2023-04-05T10:29:24;100858.94;;;10.34;100.00
29839;BME280;18669;53.356;-1.464;2023-04-05T10:36:05;100858.91;;;10.36;100.00
29839;BME280;18669;53.356;-1.464;2023-04-05T10:39:02;100862.38;;;10.38;100.00
29839;BME280;18669;53.356;-1.464;2023-04-05T10:42:00;100848.34;;;10.39;100.00
29839;BME280;18669;53.356;-1.464;2023-04-05T10:44:51;100858.50;;;10.62;100.00
29839;BME280;18669;53.356;-1.464;2023-04-05T10:47:43;100856.47;;;10.78;100.00
29839;BME280;18669;53.356;-1.464;2023-04-05T10:50:31;100846.34;;;10.56;100.00
29839;BME280;18669;53.356;-1.464;2023-04-05T10:53:18;100834.16;;;10.49;100.00
29839;BME280;18669;53.356;-1.464;2023-04-05T10:56:04;100843.69;;;10.56;100.00
29839;BME280;18669;53.356;-1.464;2023-04-05T10:58:49;100849.56;;;10.72;100.00
29839;BME280;18669;53.356;-1.464;2023-04-05T11:01:35;100843.22;;;10.84;100.00
29839;BME280;18669;53.356;-1.464;2023-04-05T11:04:22;100844.94;;;10.85;100.00
29839;BME280;18669;53.356;-1.464;2023-04-05T11:07:13;100840.28;;;11.00;100.00
29839;BME280;18669;53.356;-1.464;2023-04-05T11:10:04;100838.53;;;10.99;100.00
29839;BME280;18669;53.356;-1.464;2023-04-05T11:15:38;100836.94;;;10.92;100.00
29839;BME280;18669;53.356;-1.464;2023-04-05T11:18:23;100831.41;;;11.04;100.00
29839;BME280;18669;53.356;-1.464;2023-04-05T11:21:08;100823.56;;;11.02;100.00
29839;BME280;18669;53.356;-1.464;2023-04-05T11:24:12;100833.59;;;11.29;100.00
29839;BME280;18669;53.356;-1.464;2023-04-05T11:27:08;100826.53;;;11.29;100.00
29839;BME280;18669;53.356;-1.464;2023-04-05T11:29:53;100818.69;;;11.26;100.00
29839;BME280;18669;53.356;-1.464;2023-04-05T11:32:41;100823.84;;;11.31;100.00
29839;BME280;18669;53.356;-1.464;2023-04-05T11:35:26;100817.00;;;11.24;100.00
29839;BME280;18669;53.356;-1.464;2023-04-05T11:38:20;100817.75;;;11.30;100.00
29839;BME280;18669;53.356;-1.464;2023-04-05T11:41:13;100818.81;;;11.20;100.00
29839;BME280;18669;53.356;-1.464;2023-04-05T11:44:01;100809.47;;;11.05;100.00
29839;BME280;18669;53.356;-1.464;2023-04-05T11:46:49;100810.56;;;10.95;100.00
29839;BME280;18669;53.356;-1.464;2023-04-05T11:49:34;100811.47;;;10.94;100.00
29839;BME280;18669;53.356;-1.464;2023-04-05T11:52:20;100804.53;;;10.88;100.00
29839;BME280;18669;53.356;-1.464;2023-04-05T11:55:06;100804.50;;;10.89;100.00
29839;BME280;18669;53.356;-1.464;2023-04-05T11:57:51;100809.16;;;10.77;100.00
29839;BME280;18669;53.356;-1.464;2023-04-05T12:00:36;100802.03;;;10.80;100.00
29839;BME280;18669;53.356;-1.464;2023-04-05T12:03:21;100803.47;;;10.98;100.00
29839;BME280;18669;53.356;-1.464;2023-04-05T12:06:06;100789.84;;;11.22;100.00
29839;BME280;18669;53.356;-1.464;2023-04-05T12:08:54;100796.13;;;11.14;100.00
29839;BME280;18669;53.356;-1.464;2023-04-05T12:11:39;100795.06;;;11.23;100.00
29839;BME280;18669;53.356;-1.464;2023-04-05T12:14:24;100793.19;;;11.28;100.00
29839;BME280;18669;53.356;-1.464;2023-04-05T12:17:09;100789.84;;;11.20;100.00
29839;BME280;18669;53.356;-1.464;2023-04-05T12:19:54;100788.38;;;11.07;100.00
29839;BME280;18669;53.356;-1.464;2023-04-05T12:22:41;100792.59;;;11.15;100.00
29839;BME280;18669;53.356;-1.464;2023-04-05T12:25:27;100788.22;;;11.13;100.00
29839;BME280;18669;53.356;-1.464;2023-04-05T12:28:12;100773.25;;;11.16;100.00
29839;BME280;18669;53.356;-1.464;2023-04-05T12:30:57;100772.13;;;11.30;100.00
29839;BME280;18669;53.356;-1.464;2023-04-05T12:33:42;100777.88;;;11.47;100.00
29839;BME280;18669;53.356;-1.464;2023-04-05T12:36:27;100775.16;;;11.51;100.00
29839;BME280;18669;53.356;-1.464;2023-04-05T12:39:14;100775.34;;;11.43;100.00
29839;BME280;18669;53.356;-1.464;2023-04-05T12:42:00;100783.78;;;11.16;100.00
29839;BME280;18669;53.356;-1.464;2023-04-05T12:45:01;100782.72;;;11.27;100.00
29839;BME280;18669;53.356;-1.464;2023-04-05T12:47:55;100777.47;;;11.25;100.00
29839;BME280;18669;53.356;-1.464;2023-04-05T12:50:42;100776.91;;;11.09;100.00
29839;BME280;18669;53.356;-1.464;2023-04-05T12:53:28;100777.97;;;11.00;100.00
29839;BME280;18669;53.356;-1.464;2023-04-05T12:56:14;100769.19;;;11.00;100.00
29839;BME280;18669;53.356;-1.464;2023-04-05T12:59:00;100767.50;;;10.96;100.00
29839;BME280;18669;53.356;-1.464;2023-04-05T13:01:45;100767.50;;;10.97;100.00
29839;BME280;18669;53.356;-1.464;2023-04-05T13:04:29;100775.41;;;10.96;100.00
29839;BME280;18669;53.356;-1.464;2023-04-05T13:07:15;100767.78;;;10.82;100.00
29839;BME280;18669;53.356;-1.464;2023-04-05T13:09:59;100765.09;;;10.86;100.00
29839;BME280;18669;53.356;-1.464;2023-04-05T13:12:44;100760.63;;;10.90;100.00
29839;BME280;18669;53.356;-1.464;2023-04-05T13:15:30;100756.94;;;10.99;100.00
29839;BME280;18669;53.356;-1.464;2023-04-05T13:18:15;100756.19;;;10.92;100.00
29839;BME280;18669;53.356;-1.464;2023-04-05T13:21:00;100748.53;;;10.80;100.00
29839;BME280;18669;53.356;-1.464;2023-04-05T13:23:50;100742.28;;;10.85;100.00
29839;BME280;18669;53.356;-1.464;2023-04-05T13:26:35;100736.84;;;10.95;100.00
29839;BME280;18669;53.356;-1.464;2023-04-05T13:29:20;100735.94;;;10.96;100.00
29839;BME280;18669;53.356;-1.464;2023-04-05T13:32:05;100742.91;;;10.98;100.00
29839;BME280;18669;53.356;-1.464;2023-04-05T13:34:50;100743.69;;;11.02;100.00
29839;BME280;18669;53.356;-1.464;2023-04-05T13:37:35;100741.22;;;10.94;100.00
29839;BME280;18669;53.356;-1.464;2023-04-05T13:40:21;100740.38;;;10.94;100.00
29839;BME280;18669;53.356;-1.464;2023-04-05T13:43:06;100741.97;;;11.01;100.00
29839;BME280;18669;53.356;-1.464;2023-04-05T13:45:51;100748.00;;;11.08;100.00
29839;BME280;18669;53.356;-1.464;2023-04-05T13:48:36;100743.50;;;11.11;100.00
29839;BME280;18669;53.356;-1.464;2023-04-05T13:51:22;100743.28;;;11.22;100.00
29839;BME280;18669;53.356;-1.464;2023-04-05T13:54:07;100733.47;;;11.30;100.00
29839;BME280;18669;53.356;-1.464;2023-04-05T13:56:54;100728.25;;;11.27;100.00
29839;BME280;18669;53.356;-1.464;2023-04-05T13:59:40;100726.38;;;11.32;100.00
29839;BME280;18669;53.356;-1.464;2023-04-05T14:02:25;100719.19;;;11.41;100.00
29839;BME280;18669;53.356;-1.464;2023-04-05T14:05:10;100723.50;;;11.43;100.00
29839;BME280;18669;53.356;-1.464;2023-04-05T14:07:55;100707.91;;;11.34;100.00
29839;BME280;18669;53.356;-1.464;2023-04-05T14:10:40;100708.06;;;11.28;100.00
29839;BME280;18669;53.356;-1.464;2023-04-05T14:13:25;100703.91;;;11.16;100.00
29839;BME280;18669;53.356;-1.464;2023-04-05T14:16:10;100689.31;;;11.02;100.00
29839;BME280;18669;53.356;-1.464;2023-04-05T14:18:56;100697.78;;;11.15;100.00
29839;BME280;18669;53.356;-1.464;2023-04-05T14:21:41;100692.28;;;11.26;100.00
29839;BME280;18669;53.356;-1.464;2023-04-05T14:24:26;100687.97;;;11.22;100.00
29839;BME280;18669;53.356;-1.464;2023-04-05T14:27:11;100693.38;;;11.16;100.00
29839;BME280;18669;53.356;-1.464;2023-04-05T14:29:56;100685.47;;;11.16;100.00
29839;BME280;18669;53.356;-1.464;2023-04-05T14:32:41;100674.16;;;11.12;100.00